Time;durP1;ratioP1;P1;durP2;ratioP2;P2;SDS_P1;SDS_P2;PMS_P1;PMS_P2;Temp;Humidity;BMP_temperature;BMP_pressure;BME280_temperature;BME280_humidity;BME280_pressure;Samples;Min_cycle;Max_cycle;Signal;HPM_P1;HPM_P2
2021/07/21 00:00:47;;;;;;;16.10;7.82;;;18.30;99.90;;;;;;4976916;28;20053;-88
2021/07/21 00:03:13;;;;;;;11.35;7.95;;;18.10;99.90;;;;;;4976882;28;20125;-88
2021/07/21 00:05:40;;;;;;;10.38;7.57;;;18.10;99.90;;;;;;4976775;28;20029;-87
2021/07/21 00:08:06;;;;;;;10.15;7.68;;;18.10;99.90;;;;;;4976790;28;20113;-88
2021/07/21 00:10:33;;;;;;;13.80;7.55;;;17.80;99.90;;;;;;4976825;28;20030;-87
2021/07/21 00:16:05;;;;;;;11.75;7.53;;;17.80;99.90;;;;;;4994787;28;20033;-86
2021/07/21 00:18:47;;;;;;;12.50;8.15;;;17.90;99.90;;;;;;4994233;28;20027;-87
2021/07/21 00:21:15;;;;;;;11.88;7.72;;;17.80;99.90;;;;;;4976741;28;20081;-87
2021/07/21 00:23:42;;;;;;;11.10;7.32;;;17.70;99.90;;;;;;4993993;28;20031;-88
2021/07/21 00:26:08;;;;;;;12.30;7.63;;;17.60;99.90;;;;;;4976578;28;20506;-87
2021/07/21 00:28:39;;;;;;;11.30;6.75;;;17.70;99.90;;;;;;4976634;28;20041;-88
2021/07/21 00:31:05;;;;;;;11.27;7.15;;;17.70;99.90;;;;;;4982213;28;20025;-87
2021/07/21 00:33:31;;;;;;;13.30;7.82;;;17.70;99.90;;;;;;4985392;28;20034;-87
2021/07/21 00:35:56;;;;;;;12.73;7.65;;;17.80;99.90;;;;;;4980382;28;20513;-88
2021/07/21 00:38:22;;;;;;;11.20;7.28;;;17.60;99.90;;;;;;4977129;28;20023;-87
2021/07/21 00:40:49;;;;;;;13.80;7.65;;;17.80;99.90;;;;;;4977164;28;20037;-87
2021/07/21 00:43:15;;;;;;;10.05;6.90;;;17.70;99.90;;;;;;4976510;28;20500;-88
2021/07/21 00:45:41;;;;;;;9.85;7.20;;;17.60;99.90;;;;;;4976465;28;20019;-88
2021/07/21 00:48:06;;;;;;;11.35;7.57;;;17.70;99.90;;;;;;4993915;28;20497;-87
2021/07/21 00:50:32;;;;;;;13.27;6.90;;;17.60;99.90;;;;;;4976525;28;20026;-87
2021/07/21 00:52:58;;;;;;;9.65;6.80;;;17.60;99.90;;;;;;4976404;28;20045;-88
2021/07/21 00:55:26;;;;;;;11.82;7.30;;;17.60;99.90;;;;;;4993537;28;20061;-88
2021/07/21 00:57:54;;;;;;;11.18;7.30;;;17.80;99.90;;;;;;4993810;28;20042;-88
2021/07/21 01:00:20;;;;;;;11.52;7.47;;;17.60;99.90;;;;;;4976323;28;20113;-87
2021/07/21 01:02:48;;;;;;;10.75;7.22;;;17.60;99.90;;;;;;4993693;28;20130;-87
2021/07/21 01:05:27;;;;;;;11.38;7.40;;;17.50;99.90;;;;;;4976287;28;20026;-88
2021/07/21 01:07:53;;;;;;;13.85;7.20;;;17.50;99.90;;;;;;4976385;28;20026;-88
2021/07/21 01:10:20;;;;;;;14.20;7.13;;;17.60;99.90;;;;;;4976133;28;20116;-88
2021/07/21 01:13:05;;;;;;;11.07;7.50;;;17.30;99.90;;;;;;4976208;28;20041;-88
2021/07/21 01:16:00;;;;;;;13.82;7.20;;;17.30;99.90;;;;;;4976089;28;20049;-87
2021/07/21 01:18:46;;;;;;;9.23;6.43;;;17.60;99.90;;;;;;4971180;28;20125;-88
2021/07/21 01:21:27;;;;;;;11.52;7.35;;;17.50;99.90;;;;;;4976220;28;20394;-87
2021/07/21 01:24:14;;;;;;;15.07;6.68;;;17.50;99.90;;;;;;4976084;28;20031;-87
2021/07/21 01:27:01;;;;;;;12.93;7.35;;;17.60;99.90;;;;;;4976131;28;20026;-88
2021/07/21 01:29:28;;;;;;;10.82;6.57;;;16.90;99.90;;;;;;4976118;28;20026;-87
2021/07/21 01:31:57;;;;;;;12.18;7.00;;;16.90;99.90;;;;;;4977982;28;20390;-88
2021/07/21 01:34:31;;;;;;;9.15;6.70;;;17.20;99.90;;;;;;4977390;28;20027;-87
2021/07/21 01:36:59;;;;;;;13.70;7.30;;;17.30;99.90;;;;;;4977213;28;20464;-87
2021/07/21 01:39:38;;;;;;;11.93;6.43;;;17.20;99.90;;;;;;4977904;28;20402;-88
2021/07/21 01:42:08;;;;;;;15.38;7.10;;;17.20;99.90;;;;;;4977711;28;20037;-88
2021/07/21 01:44:40;;;;;;;9.48;6.38;;;17.40;99.90;;;;;;4979119;28;20030;-87
2021/07/21 01:47:06;;;;;;;10.63;7.82;;;17.30;99.90;;;;;;4981206;28;20026;-87
2021/07/21 01:49:37;;;;;;;13.30;7.38;;;17.40;99.90;;;;;;4981403;28;20092;-88
2021/07/21 01:52:14;;;;;;;8.50;6.57;;;17.40;99.90;;;;;;4981170;28;20018;-87
2021/07/21 01:54:42;;;;;;;12.27;6.72;;;17.30;99.90;;;;;;4980897;28;20047;-88
2021/07/21 01:57:09;;;;;;;9.20;6.60;;;17.70;99.90;;;;;;4980976;28;20026;-88
2021/07/21 01:59:36;;;;;;;8.90;6.63;;;17.60;99.90;;;;;;4998625;28;20026;-87
2021/07/21 02:02:03;;;;;;;9.63;6.35;;;17.30;99.90;;;;;;4981141;28;20030;-87
2021/07/21 02:04:30;;;;;;;11.07;7.35;;;17.40;99.90;;;;;;4980218;28;20494;-87
2021/07/21 02:06:57;;;;;;;9.65;6.53;;;17.40;99.90;;;;;;4981753;28;20512;-87
2021/07/21 02:09:23;;;;;;;10.32;6.85;;;17.10;99.90;;;;;;4980841;28;20023;-87
2021/07/21 02:11:50;;;;;;;11.23;6.30;;;16.90;99.90;;;;;;4980539;28;20363;-87
2021/07/21 02:14:17;;;;;;;9.05;6.50;;;16.90;99.90;;;;;;4980077;28;20037;-88
2021/07/21 02:16:43;;;;;;;10.32;6.53;;;17.00;99.90;;;;;;4980504;28;20026;-87
2021/07/21 02:19:09;;;;;;;12.27;6.75;;;17.10;99.90;;;;;;4980935;28;20478;-87
2021/07/21 02:21:41;;;;;;;9.63;6.75;;;17.10;99.90;;;;;;4979742;28;20056;-87
2021/07/21 02:24:09;;;;;;;9.68;6.63;;;17.10;99.90;;;;;;4997841;28;20026;-87
2021/07/21 02:26:39;;;;;;;8.70;6.30;;;17.10;99.90;;;;;;4980171;28;20025;-87
2021/07/21 02:29:06;;;;;;;11.68;6.57;;;17.10;99.90;;;;;;4980260;28;20092;-87
2021/07/21 02:31:52;;;;;;;8.05;6.15;;;17.00;99.90;;;;;;4980092;28;20076;-87
2021/07/21 02:34:17;;;;;;;11.52;6.50;;;17.00;99.90;;;;;;4980042;28;20430;-87
2021/07/21 02:36:43;;;;;;;10.45;7.00;;;17.20;99.90;;;;;;4979489;28;20030;-87
2021/07/21 02:39:09;;;;;;;11.65;6.57;;;17.10;99.90;;;;;;4979637;28;20481;-87
2021/07/21 02:41:37;;;;;;;11.70;6.53;;;16.90;99.90;;;;;;4983308;28;20027;-86
2021/07/21 02:44:04;;;;;;;9.30;6.55;;;17.00;99.90;;;;;;5006667;28;20030;-86
2021/07/21 02:46:30;;;;;;;9.05;6.13;;;16.90;99.90;;;;;;4986391;28;20026;-87
2021/07/21 02:48:57;;;;;;;10.63;6.35;;;17.00;99.90;;;;;;4981578;28;20117;-87
2021/07/21 02:51:35;;;;;;;9.55;6.30;;;16.90;99.90;;;;;;4998421;28;20030;-88
2021/07/21 02:54:21;;;;;;;8.98;6.70;;;17.20;99.90;;;;;;4997455;28;20418;-87
2021/07/21 02:56:57;;;;;;;10.35;6.50;;;17.10;99.90;;;;;;4978715;28;20038;-87
2021/07/21 02:59:29;;;;;;;8.38;5.72;;;17.00;99.90;;;;;;4979914;28;20073;-87
2021/07/21 03:01:59;;;;;;;15.35;6.55;;;17.00;99.90;;;;;;4997186;28;20433;-87
2021/07/21 03:04:26;;;;;;;9.88;6.00;;;17.20;99.90;;;;;;4996918;28;20053;-87
2021/07/21 03:06:54;;;;;;;7.90;5.88;;;17.20;99.90;;;;;;4979260;28;20573;-87
2021/07/21 03:09:22;;;;;;;9.10;6.60;;;17.20;99.90;;;;;;4979446;28;20118;-87
2021/07/21 03:11:51;;;;;;;10.85;6.28;;;17.20;99.90;;;;;;4979620;28;20030;-87
2021/07/21 03:14:19;;;;;;;10.05;6.20;;;17.10;99.90;;;;;;4979376;28;20033;-87
2021/07/21 03:16:46;;;;;;;9.40;6.45;;;17.00;99.90;;;;;;4978983;28;20493;-86
2021/07/21 03:19:14;;;;;;;10.93;7.15;;;17.00;99.90;;;;;;4979526;28;20557;-87
2021/07/21 03:21:40;;;;;;;10.07;6.43;;;16.80;99.90;;;;;;4996632;28;20022;-86
2021/07/21 03:24:07;;;;;;;12.40;6.65;;;16.90;99.90;;;;;;4979209;28;20494;-87
2021/07/21 03:26:33;;;;;;;9.23;6.45;;;16.80;99.90;;;;;;4979364;28;20022;-89
2021/07/21 03:29:01;;;;;;;12.10;6.43;;;16.80;99.90;;;;;;4979354;28;20002;-87
2021/07/21 03:31:26;;;;;;;11.32;6.93;;;17.00;99.90;;;;;;4979563;28;20508;-90
2021/07/21 03:34:09;;;;;;;10.75;6.82;;;17.10;99.90;;;;;;4978818;28;20113;-87
2021/07/21 03:36:37;;;;;;;10.23;6.50;;;17.10;99.90;;;;;;4979004;28;20022;-87
2021/07/21 03:39:06;;;;;;;11.10;6.45;;;17.00;99.90;;;;;;4978681;28;20041;-87
2021/07/21 03:41:34;;;;;;;12.57;6.18;;;16.90;99.90;;;;;;4978810;28;20026;-87
2021/07/21 03:44:03;;;;;;;10.02;6.45;;;17.00;99.90;;;;;;4979113;28;20031;-90
2021/07/21 03:46:30;;;;;;;9.68;7.10;;;16.90;99.90;;;;;;4996112;28;20077;-89
2021/07/21 03:48:59;;;;;;;8.98;6.28;;;16.80;99.90;;;;;;4996156;28;20022;-89
2021/07/21 03:51:26;;;;;;;10.45;6.35;;;17.10;99.90;;;;;;4978869;28;20060;-89
2021/07/21 03:53:52;;;;;;;10.05;6.53;;;17.10;99.90;;;;;;4975438;28;20450;-88
2021/07/21 03:56:18;;;;;;;8.88;6.38;;;17.10;99.90;;;;;;4975447;28;20058;-88
2021/07/21 03:58:44;;;;;;;9.30;6.35;;;17.10;99.90;;;;;;4976103;28;20435;-89
2021/07/21 04:01:11;;;;;;;12.02;7.22;;;16.90;99.90;;;;;;4975520;28;20034;-88
2021/07/21 04:03:39;;;;;;;11.25;6.47;;;16.80;99.90;;;;;;4974954;28;20117;-89
2021/07/21 04:06:06;;;;;;;9.40;6.10;;;16.90;99.90;;;;;;4975382;28;20046;-89
2021/07/21 04:08:33;;;;;;;9.07;6.30;;;17.00;99.90;;;;;;4975165;28;20114;-89
2021/07/21 04:11:00;;;;;;;12.27;6.80;;;17.00;99.90;;;;;;4975086;28;20046;-89
2021/07/21 04:13:27;;;;;;;14.63;6.70;;;17.00;99.90;;;;;;4975471;28;20037;-89
2021/07/21 04:15:55;;;;;;;10.85;6.30;;;17.00;99.90;;;;;;4974610;28;20390;-89
2021/07/21 04:18:22;;;;;;;10.85;6.68;;;16.70;99.90;;;;;;4976158;28;20442;-89
2021/07/21 04:20:49;;;;;;;8.40;6.88;;;16.50;99.90;;;;;;4975426;28;20030;-89
2021/07/21 04:23:16;;;;;;;13.35;6.65;;;16.60;99.90;;;;;;4974488;28;20054;-89
2021/07/21 04:25:42;;;;;;;11.18;6.82;;;16.80;99.90;;;;;;4975366;28;20442;-89
2021/07/21 04:28:10;;;;;;;9.52;6.43;;;16.80;99.90;;;;;;4976368;28;20037;-87
2021/07/21 04:30:36;;;;;;;9.50;6.57;;;16.90;99.90;;;;;;4976676;28;20030;-89
2021/07/21 04:33:02;;;;;;;9.52;6.03;;;17.00;99.90;;;;;;4975111;28;20049;-89
2021/07/21 04:35:28;;;;;;;13.27;6.78;;;17.10;99.90;;;;;;4974374;28;20553;-88
2021/07/21 04:37:56;;;;;;;10.82;6.38;;;17.00;99.90;;;;;;4974724;28;20479;-89
2021/07/21 04:40:22;;;;;;;9.07;6.32;;;17.00;99.90;;;;;;4974629;28;20027;-89
2021/07/21 04:42:48;;;;;;;12.15;6.57;;;16.70;99.90;;;;;;4974819;28;20038;-89
2021/07/21 04:45:13;;;;;;;16.60;6.85;;;16.90;99.90;;;;;;4975211;28;20027;-89
2021/07/21 04:47:40;;;;;;;15.15;7.00;;;17.00;99.90;;;;;;4975046;28;20019;-89
2021/07/21 04:50:08;;;;;;;10.88;7.00;;;16.70;99.90;;;;;;4974514;28;20034;-88
2021/07/21 04:52:34;;;;;;;10.65;6.18;;;17.00;99.90;;;;;;4976552;28;20031;-89
2021/07/21 04:55:00;;;;;;;10.00;6.68;;;17.10;99.90;;;;;;4985976;28;20498;-89
2021/07/21 04:57:26;;;;;;;10.15;6.63;;;16.80;99.90;;;;;;4982198;28;20489;-89
2021/07/21 04:59:52;;;;;;;10.23;6.72;;;16.80;99.90;;;;;;4976643;28;20086;-89
2021/07/21 05:02:18;;;;;;;12.32;6.47;;;17.00;99.90;;;;;;4976092;28;20030;-89
2021/07/21 05:04:44;;;;;;;14.15;7.13;;;17.10;99.90;;;;;;4975284;28;20031;-89
2021/07/21 05:07:10;;;;;;;12.82;6.65;;;16.70;99.90;;;;;;4976376;28;20019;-89
2021/07/21 05:09:36;;;;;;;10.43;6.50;;;16.90;99.90;;;;;;4974698;28;20150;-88
2021/07/21 05:12:02;;;;;;;8.88;6.57;;;17.10;99.90;;;;;;4974682;28;20019;-89
2021/07/21 05:14:28;;;;;;;15.00;7.32;;;17.00;99.90;;;;;;4976583;28;20538;-89
2021/07/21 05:16:54;;;;;;;10.10;6.10;;;16.90;99.90;;;;;;4975172;28;20034;-89
2021/07/21 05:19:20;;;;;;;11.13;6.90;;;17.00;99.90;;;;;;4976048;28;20482;-89
2021/07/21 05:21:45;;;;;;;13.75;7.60;;;17.10;99.90;;;;;;4979346;28;20023;-88
2021/07/21 05:24:11;;;;;;;10.55;6.95;;;17.10;99.90;;;;;;4980721;28;20031;-89
2021/07/21 05:26:39;;;;;;;12.40;6.55;;;16.90;99.90;;;;;;4979923;28;20050;-89
2021/07/21 05:29:05;;;;;;;11.38;6.97;;;17.00;99.90;;;;;;4978242;28;20513;-89
2021/07/21 05:31:30;;;;;;;14.23;7.35;;;17.00;99.90;;;;;;4979169;28;20027;-88
2021/07/21 05:33:56;;;;;;;13.75;6.93;;;16.90;99.90;;;;;;4979033;28;20031;-89
2021/07/21 05:36:22;;;;;;;10.77;7.40;;;17.10;99.90;;;;;;4978752;28;20026;-89
2021/07/21 05:38:48;;;;;;;12.27;7.13;;;17.30;99.90;;;;;;4978779;28;20502;-87
2021/07/21 05:41:15;;;;;;;15.50;7.13;;;17.30;99.90;;;;;;4978528;28;20037;-87
2021/07/21 05:43:41;;;;;;;13.35;6.60;;;17.20;99.90;;;;;;4978121;28;20057;-89
2021/07/21 05:46:06;;;;;;;10.02;7.15;;;17.20;99.90;;;;;;4979696;28;20110;-90
2021/07/21 05:48:32;;;;;;;13.23;7.32;;;17.10;99.90;;;;;;4979179;28;20030;-89
2021/07/21 05:50:58;;;;;;;13.43;7.50;;;17.20;99.90;;;;;;4978334;28;20041;-87
2021/07/21 05:53:24;;;;;;;13.48;6.93;;;17.30;99.90;;;;;;4977604;28;20026;-85
2021/07/21 05:55:49;;;;;;;10.38;6.60;;;17.40;99.90;;;;;;4980851;28;20528;-87
2021/07/21 05:58:15;;;;;;;18.02;8.02;;;17.60;99.90;;;;;;4980129;28;20069;-87
2021/07/21 06:00:44;;;;;;;14.15;8.10;;;17.70;99.90;;;;;;4980733;28;20478;-87
2021/07/21 06:03:10;;;;;;;14.15;7.43;;;17.50;99.90;;;;;;4981310;28;20033;-87
2021/07/21 06:05:39;;;;;;;13.73;7.22;;;17.60;99.90;;;;;;4983259;28;20023;-88
2021/07/21 06:08:05;;;;;;;11.18;7.70;;;17.70;99.90;;;;;;4998827;28;20030;-88
2021/07/21 06:10:31;;;;;;;15.60;7.40;;;17.80;99.90;;;;;;4980896;28;20018;-88
2021/07/21 06:12:57;;;;;;;15.43;7.63;;;17.90;99.90;;;;;;4981037;28;20042;-87
2021/07/21 06:15:27;;;;;;;14.65;7.30;;;18.00;99.90;;;;;;4980961;28;20023;-88
2021/07/21 06:17:53;;;;;;;12.70;7.38;;;18.00;99.90;;;;;;4980195;28;20034;-88
2021/07/21 06:20:18;;;;;;;12.35;6.90;;;18.10;99.90;;;;;;4998507;28;20026;-88
2021/07/21 06:22:44;;;;;;;12.82;7.18;;;18.30;99.90;;;;;;4998268;28;20073;-88
2021/07/21 06:25:10;;;;;;;16.15;8.25;;;18.50;99.90;;;;;;4980772;28;20019;-87
2021/07/21 06:27:36;;;;;;;13.05;8.02;;;18.40;99.90;;;;;;4980831;28;20019;-88
2021/07/21 06:30:06;;;;;;;15.75;8.32;;;18.40;99.90;;;;;;4980169;28;20030;-88
2021/07/21 06:32:38;;;;;;;13.18;7.70;;;18.40;99.90;;;;;;4980666;28;20026;-88
2021/07/21 06:35:05;;;;;;;14.13;8.27;;;18.40;99.90;;;;;;4997943;28;20421;-87
2021/07/21 06:37:31;;;;;;;14.25;7.75;;;18.40;99.90;;;;;;4979336;28;20048;-88
2021/07/21 06:39:57;;;;;;;11.07;7.97;;;18.50;99.90;;;;;;4980143;28;20042;-88
2021/07/21 06:42:23;;;;;;;15.57;7.68;;;18.70;99.90;;;;;;4997452;28;20394;-86
2021/07/21 06:44:48;;;;;;;12.93;8.25;;;18.90;99.90;;;;;;4979888;28;20033;-87
2021/07/21 06:47:14;;;;;;;12.20;7.57;;;18.90;99.90;;;;;;4980505;28;20027;-87
2021/07/21 06:49:40;;;;;;;13.65;8.07;;;18.70;99.90;;;;;;4997441;28;20096;-87
2021/07/21 06:52:06;;;;;;;16.40;7.40;;;18.70;99.90;;;;;;4979425;28;20049;-87
2021/07/21 06:54:31;;;;;;;17.00;7.88;;;18.70;99.90;;;;;;4996892;28;20418;-87
2021/07/21 06:56:57;;;;;;;10.90;7.63;;;18.80;99.90;;;;;;4979976;28;20026;-87
2021/07/21 06:59:27;;;;;;;14.73;7.68;;;18.80;99.90;;;;;;4997487;28;20031;-87
2021/07/21 07:01:53;;;;;;;17.88;8.00;;;18.90;99.90;;;;;;4979382;28;20121;-87
2021/07/21 07:04:18;;;;;;;15.35;7.80;;;19.00;99.90;;;;;;4981356;28;20046;-87
2021/07/21 07:06:44;;;;;;;12.52;7.32;;;19.20;99.90;;;;;;4983853;28;20045;-87
2021/07/21 07:09:10;;;;;;;12.68;8.13;;;19.10;99.90;;;;;;4982133;28;20019;-87
2021/07/21 07:11:36;;;;;;;14.48;7.50;;;19.20;99.90;;;;;;4979490;28;20037;-87
2021/07/21 07:14:02;;;;;;;14.05;8.55;;;19.20;99.90;;;;;;4980355;28;20027;-87
2021/07/21 07:16:27;;;;;;;16.42;8.20;;;19.40;99.90;;;;;;4979234;28;20030;-87
2021/07/21 07:18:53;;;;;;;14.70;7.82;;;19.40;99.90;;;;;;4979011;28;20509;-87
2021/07/21 07:21:20;;;;;;;16.30;7.82;;;19.50;99.90;;;;;;4979478;28;20041;-87
2021/07/21 07:23:47;;;;;;;13.77;7.03;;;19.60;99.90;;;;;;4978825;28;20022;-87
2021/07/21 07:26:13;;;;;;;14.23;7.40;;;19.70;99.90;;;;;;4978465;28;20027;-87
2021/07/21 07:28:39;;;;;;;18.98;8.13;;;19.80;99.90;;;;;;4978885;28;20544;-87
2021/07/21 07:31:04;;;;;;;18.80;8.00;;;19.90;99.90;;;;;;4978282;28;20029;-87
2021/07/21 07:33:30;;;;;;;12.27;7.03;;;20.00;99.90;;;;;;4977671;28;20359;-87
2021/07/21 07:35:56;;;;;;;17.00;7.25;;;20.10;99.90;;;;;;4977712;28;20022;-87
2021/07/21 07:38:21;;;;;;;18.33;8.00;;;20.20;99.90;;;;;;4977470;28;20026;-87
2021/07/21 07:40:47;;;;;;;17.85;7.68;;;20.20;99.90;;;;;;4994806;28;20426;-87
2021/07/21 07:43:13;;;;;;;12.25;7.43;;;20.30;99.90;;;;;;4976586;28;20027;-87
2021/07/21 07:45:39;;;;;;;14.45;7.28;;;20.40;99.90;;;;;;4977256;28;20486;-87
2021/07/21 07:48:05;;;;;;;16.17;8.23;;;20.50;99.90;;;;;;4977177;28;20088;-87
2021/07/21 07:50:31;;;;;;;14.15;7.93;;;20.50;99.90;;;;;;4977068;28;20018;-87
2021/07/21 07:52:57;;;;;;;13.43;7.28;;;20.60;99.90;;;;;;4977061;28;20026;-88
2021/07/21 07:55:22;;;;;;;12.30;7.47;;;20.70;99.90;;;;;;4994328;28;20065;-88
2021/07/21 07:57:48;;;;;;;16.38;8.00;;;20.70;99.90;;;;;;4994489;28;20478;-88
2021/07/21 08:00:15;;;;;;;15.57;7.00;;;20.80;99.90;;;;;;4977000;28;20022;-88
2021/07/21 08:02:41;;;;;;;9.80;6.93;;;21.00;99.90;;;;;;4976946;28;20025;-88
2021/07/21 08:05:07;;;;;;;11.77;7.53;;;21.20;99.90;;;;;;4976694;28;20034;-88
2021/07/21 08:07:35;;;;;;;17.95;7.60;;;21.20;99.90;;;;;;4976740;28;20031;-88
2021/07/21 08:10:01;;;;;;;18.58;7.18;;;21.30;99.90;;;;;;4976939;28;20030;-88
2021/07/21 08:12:27;;;;;;;13.75;7.28;;;21.50;99.90;;;;;;4976803;28;20031;-87
2021/07/21 08:14:53;;;;;;;13.20;7.40;;;21.60;99.90;;;;;;4976744;28;20026;-88
2021/07/21 08:17:19;;;;;;;11.35;7.07;;;21.70;99.90;;;;;;4976582;28;20033;-87
2021/07/21 08:19:45;;;;;;;15.30;7.20;;;21.80;99.90;;;;;;4976656;28;20027;-87
2021/07/21 08:22:11;;;;;;;16.13;7.45;;;21.90;99.90;;;;;;4976820;28;20029;-87
2021/07/21 08:24:37;;;;;;;10.98;7.07;;;22.00;99.90;;;;;;4993775;28;20034;-87
2021/07/21 08:27:03;;;;;;;19.23;7.53;;;22.10;99.90;;;;;;4976453;28;20026;-88
2021/07/21 08:29:29;;;;;;;13.30;6.78;;;22.30;99.90;;;;;;4976624;28;20033;-87
2021/07/21 08:31:55;;;;;;;10.52;6.07;;;22.40;99.90;;;;;;4976505;28;20101;-87
2021/07/21 08:34:21;;;;;;;10.32;7.03;;;22.50;99.90;;;;;;4994039;28;20428;-88
2021/07/21 08:36:46;;;;;;;12.80;6.68;;;22.50;99.90;;;;;;4976477;28;20033;-88
2021/07/21 08:39:12;;;;;;;10.00;6.70;;;22.60;99.90;;;;;;4976533;28;20050;-87
2021/07/21 08:41:40;;;;;;;16.65;7.93;;;22.60;99.90;;;;;;4976422;28;20085;-87
2021/07/21 08:44:07;;;;;;;15.57;7.13;;;22.70;99.90;;;;;;4993806;28;20394;-87
2021/07/21 08:46:36;;;;;;;16.52;7.43;;;22.80;99.90;;;;;;4994115;28;20403;-87
2021/07/21 08:49:02;;;;;;;10.48;7.32;;;22.70;99.90;;;;;;4976361;28;20521;-87
2021/07/21 08:51:28;;;;;;;9.88;6.30;;;22.60;99.90;;;;;;4993789;28;20042;-87
2021/07/21 08:53:54;;;;;;;14.35;7.28;;;22.90;99.90;;;;;;4977990;28;20465;-88
2021/07/21 08:56:20;;;;;;;10.88;6.45;;;23.00;99.90;;;;;;4980338;28;20027;-87
2021/07/21 08:58:48;;;;;;;12.73;6.43;;;23.10;99.90;;;;;;4980629;28;20030;-88
2021/07/21 09:01:14;;;;;;;11.05;6.78;;;23.10;99.90;;;;;;4999164;28;20466;-87
2021/07/21 09:03:42;;;;;;;10.90;7.30;;;23.10;99.90;;;;;;4979980;28;20117;-88
2021/07/21 09:06:10;;;;;;;11.07;7.15;;;23.30;99.90;;;;;;4980583;28;20486;-87
2021/07/21 09:08:36;;;;;;;15.40;6.80;;;23.40;99.90;;;;;;4980072;28;20023;-88
2021/07/21 09:11:03;;;;;;;14.68;6.45;;;23.40;99.90;;;;;;4980056;28;20025;-87
2021/07/21 09:13:29;;;;;;;12.55;6.88;;;23.60;99.90;;;;;;4980832;28;20038;-87
2021/07/21 09:15:55;;;;;;;11.95;6.53;;;23.70;99.90;;;;;;4983778;28;20094;-86
2021/07/21 09:18:22;;;;;;;10.43;6.68;;;23.90;99.90;;;;;;4981424;28;20053;-87
2021/07/21 09:21:07;;;;;;;12.88;7.00;;;24.10;99.90;;;;;;4980268;28;20056;-87
2021/07/21 09:23:45;;;;;;;13.27;7.70;;;24.00;99.90;;;;;;4980123;28;20026;-87
2021/07/21 09:26:21;;;;;;;9.57;6.68;;;23.70;99.90;;;;;;4997305;28;20030;-87
2021/07/21 09:28:47;;;;;;;9.70;6.78;;;23.90;99.90;;;;;;4979745;28;20068;-87
2021/07/21 09:31:27;;;;;;;15.25;6.82;;;24.00;99.90;;;;;;4979715;28;20050;-86
2021/07/21 09:33:54;;;;;;;15.57;7.45;;;24.20;99.90;;;;;;4997158;28;20058;-87
2021/07/21 09:36:20;;;;;;;11.35;6.65;;;24.40;99.90;;;;;;4979573;28;20035;-87
2021/07/21 09:38:46;;;;;;;12.18;6.65;;;24.40;99.90;;;;;;4979438;28;20041;-87
2021/07/21 09:41:14;;;;;;;8.43;6.70;;;24.60;99.90;;;;;;4996965;28;20030;-87
2021/07/21 09:43:40;;;;;;;9.27;7.05;;;24.60;99.90;;;;;;4996921;28;20022;-87
2021/07/21 09:46:07;;;;;;;12.57;6.72;;;24.70;99.90;;;;;;4979370;28;20433;-87
2021/07/21 09:48:46;;;;;;;10.20;6.70;;;24.90;99.90;;;;;;4979346;28;20034;-87
2021/07/21 09:51:28;;;;;;;14.20;6.82;;;24.80;99.90;;;;;;4979393;28;20390;-87
2021/07/21 09:53:54;;;;;;;10.05;6.63;;;25.10;99.90;;;;;;4996657;28;20081;-87
2021/07/21 09:56:31;;;;;;;10.77;6.55;;;25.20;99.90;;;;;;4979314;28;20026;-87
2021/07/21 09:59:32;;;;;;;13.73;6.30;;;25.10;99.90;;;;;;4996672;28;20031;-87
2021/07/21 10:02:12;;;;;;;12.55;6.47;;;25.30;99.90;;;;;;4979115;28;20034;-86
2021/07/21 10:04:40;;;;;;;12.30;6.97;;;25.40;99.90;;;;;;4978623;28;20542;-88
2021/07/21 10:09:41;;;;;;;11.82;6.80;;;25.40;99.90;;;;;;4996807;28;20034;-87
2021/07/21 10:12:15;;;;;;;10.93;6.35;;;25.50;99.90;;;;;;4978947;28;20044;-85
2021/07/21 10:14:53;;;;;;;11.13;6.70;;;25.80;99.90;;;;;;4979007;28;20033;-87
2021/07/21 10:17:19;;;;;;;10.88;6.90;;;26.10;99.90;;;;;;4978856;28;20389;-87
2021/07/21 10:19:45;;;;;;;10.65;7.10;;;26.20;99.90;;;;;;4996514;28;20030;-85
2021/07/21 10:22:10;;;;;;;11.02;6.78;;;26.40;99.90;;;;;;4978677;28;20429;-87
2021/07/21 10:24:38;;;;;;;10.95;7.18;;;26.50;99.90;;;;;;4978680;28;20512;-86
2021/07/21 10:27:04;;;;;;;15.13;6.80;;;26.20;99.40;;;;;;4978635;28;20113;-86
2021/07/21 10:29:30;;;;;;;13.38;7.18;;;26.30;99.90;;;;;;4978514;28;20066;-86
2021/07/21 10:31:56;;;;;;;12.68;6.93;;;26.40;99.90;;;;;;4996078;28;20070;-86
2021/07/21 10:34:25;;;;;;;11.35;7.43;;;26.20;99.90;;;;;;4995937;28;20474;-86
2021/07/21 10:36:53;;;;;;;10.43;6.85;;;26.00;99.60;;;;;;4978360;28;20026;-87
2021/07/21 10:39:23;;;;;;;15.85;7.00;;;26.30;99.90;;;;;;4979224;28;20049;-87
2021/07/21 10:41:50;;;;;;;10.82;7.53;;;26.40;99.80;;;;;;4978395;28;20027;-87
2021/07/21 10:44:18;;;;;;;13.15;7.25;;;26.40;99.60;;;;;;4995781;28;20081;-86
2021/07/21 10:46:54;;;;;;;10.88;7.20;;;26.90;99.40;;;;;;4978250;28;20026;-86
2021/07/21 10:49:32;;;;;;;11.43;7.15;;;26.80;99.70;;;;;;4978362;28;20561;-88
2021/07/21 10:52:33;;;;;;;12.70;7.03;;;26.90;98.40;;;;;;4995686;28;20026;-87
2021/07/21 10:55:06;;;;;;;9.07;7.13;;;26.90;98.20;;;;;;4978058;28;20050;-87
2021/07/21 11:00:30;;;;;;;13.98;7.32;;;27.70;97.80;;;;;;4996005;28;20041;-87
2021/07/21 11:03:31;;;;;;;;;;;27.80;97.60;;;;;;4978407;28;20069;-88
2021/07/21 11:06:10;;;;;;;14.75;7.30;;;27.90;97.20;;;;;;4935483;29;20374;-88
2021/07/21 11:08:47;;;;;;;12.77;7.22;;;28.10;97.30;;;;;;4971200;28;20030;-85
2021/07/21 11:11:22;;;;;;;15.10;6.80;;;28.10;96.80;;;;;;4977804;28;20437;-85
2021/07/21 11:13:59;;;;;;;10.93;7.28;;;28.20;97.20;;;;;;4995296;28;20077;-87
2021/07/21 11:16:41;;;;;;;17.63;7.00;;;28.30;96.40;;;;;;4977179;28;20022;-88
2021/07/21 11:19:32;;;;;;;11.45;7.00;;;28.50;96.80;;;;;;4977570;28;20026;-85
2021/07/21 11:22:09;;;;;;;15.68;7.38;;;28.60;95.60;;;;;;4977680;28;20022;-85
2021/07/21 11:25:00;;;;;;;13.93;7.80;;;28.50;96.40;;;;;;4979359;28;20046;-87
2021/07/21 11:27:54;;;;;;;12.88;7.53;;;28.40;95.00;;;;;;4999275;28;20022;-86
2021/07/21 11:30:42;;;;;;;11.77;7.30;;;28.10;95.50;;;;;;4995973;28;20023;-87
2021/07/21 11:33:49;;;;;;;10.38;6.60;;;28.50;94.80;;;;;;4995134;28;20030;-87
2021/07/21 11:36:46;;;;;;;11.45;7.35;;;28.80;95.30;;;;;;4977382;28;20022;-87
2021/07/21 11:39:40;;;;;;;9.82;6.88;;;29.00;94.50;;;;;;5093711;28;20355;-85
2021/07/21 11:42:30;;;;;;;18.40;8.00;;;29.20;94.50;;;;;;5072715;28;20399;-86
2021/07/21 11:45:08;;;;;;;15.63;8.10;;;28.90;93.70;;;;;;5061207;28;20032;-87
2021/07/21 11:47:42;;;;;;;12.70;7.20;;;29.30;94.20;;;;;;5072615;28;20078;-86
2021/07/21 11:50:18;;;;;;;;;;;29.60;93.50;;;;;;5091203;28;20036;-88
2021/07/21 11:53:10;;;;;;;10.57;6.82;;;29.50;94.20;;;;;;5072528;28;19904;-88
2021/07/21 11:55:37;;;;;;;15.52;7.43;;;29.30;93.90;;;;;;5072519;28;20069;-88
2021/07/21 11:58:11;;;;;;;12.20;7.57;;;29.00;94.00;;;;;;5072340;28;20033;-87
2021/07/21 12:00:36;;;;;;;15.63;8.23;;;29.50;93.90;;;;;;5072383;28;20016;-85
2021/07/21 12:03:06;;;;;;;11.57;7.65;;;29.70;92.10;;;;;;5090519;28;20028;-87
2021/07/21 12:05:33;;;;;;;11.05;7.50;;;29.90;92.70;;;;;;5072380;28;20020;-88
2021/07/21 12:08:00;;;;;;;10.75;6.82;;;30.10;92.70;;;;;;5072333;28;20024;-88
2021/07/21 12:10:26;;;;;;;10.55;7.47;;;30.00;93.20;;;;;;5072281;28;20020;-88
2021/07/21 12:12:54;;;;;;;16.48;7.93;;;30.30;92.00;;;;;;5072098;28;20070;-88
2021/07/21 12:15:20;;;;;;;11.27;7.20;;;30.70;92.00;;;;;;5072125;28;20483;-89
2021/07/21 12:17:46;;;;;;;14.93;8.23;;;30.70;92.40;;;;;;5072211;28;20024;-88
2021/07/21 12:20:14;;;;;;;14.48;7.60;;;30.60;91.30;;;;;;5072107;28;20395;-88
2021/07/21 12:22:46;;;;;;;13.68;7.50;;;30.70;91.20;;;;;;5090066;28;20479;-88
2021/07/21 12:25:14;;;;;;;11.15;7.55;;;30.90;90.80;;;;;;5090046;28;20537;-85
2021/07/21 12:27:45;;;;;;;9.63;7.15;;;30.90;90.00;;;;;;5071765;28;20028;-85
2021/07/21 12:30:17;;;;;;;11.98;6.97;;;31.20;90.10;;;;;;5089970;28;20028;-85
2021/07/21 12:32:45;;;;;;;11.82;7.32;;;30.80;90.50;;;;;;5071714;28;20021;-88
2021/07/21 12:35:12;;;;;;;13.35;7.82;;;31.10;90.00;;;;;;5071617;28;20029;-87
2021/07/21 12:37:47;;;;;;;14.10;7.45;;;31.10;90.60;;;;;;5054679;28;20047;-88
2021/07/21 12:40:15;;;;;;;12.65;7.82;;;31.70;90.00;;;;;;5051587;28;20503;-85
2021/07/21 12:42:41;;;;;;;12.45;7.90;;;31.20;89.50;;;;;;5069371;28;20020;-85
2021/07/21 12:45:09;;;;;;;15.32;7.75;;;31.30;88.10;;;;;;5051599;28;20017;-85
2021/07/21 12:47:39;;;;;;;15.85;7.63;;;31.30;89.40;;;;;;5051464;28;20119;-88
2021/07/21 12:50:13;;;;;;;15.25;8.15;;;31.20;89.20;;;;;;5059268;28;20063;-85
2021/07/21 12:52:46;;;;;;;16.83;7.67;;;31.20;87.10;;;;;;5056242;28;20025;-85
2021/07/21 12:55:16;;;;;;;9.07;7.18;;;31.10;88.40;;;;;;5056295;28;20028;-88
2021/07/21 12:57:50;;;;;;;11.88;7.40;;;31.80;86.90;;;;;;5037911;28;20033;-87